This is the latest recevied weather packets stored in our database for station/object K5VP. If no packets are shown the sender has not sent any weather packets the latest 1 day(s).
| Time | Temp. | Humidity | Pressure | Rain* | Wind** | Luminosity | Snow |
|---|---|---|---|---|---|---|---|
| 1778052244 | 11.11° C | 94% | 1010.6 hPa | 2.79 mm | - | - | - |
| 1778051853 | 11.11° C | 94% | 1010.6 hPa | 24.38 mm | - | - | - |
| 1778051080 | 11.11° C | 94% | 1009.4 hPa | 1.27 mm | - | - | - |
| 1778050316 | 11.67° C | 94% | 1010.2 hPa | 0 mm | - | - | - |
| 1778049930 | 11.67° C | 94% | 1009.5 hPa | 0 mm | - | - | - |
| 1778049466 | 11.67° C | 93% | 1009.6 hPa | 0 mm | - | - | - |
| 1778049097 | 11.67° C | 93% | 1009.4 hPa | 0 mm | - | - | - |
| 1778048340 | 12.22° C | 93% | 1009.1 hPa | 0 mm | - | - | - |
| 1778047944 | 12.78° C | 93% | 1009.1 hPa | 0 mm | - | - | - |
| 1778047548 | 12.78° C | 93% | 1008.7 hPa | 0 mm | - | - | - |
| 1778047151 | 13.33° C | 93% | 1008.4 hPa | 0 mm | - | - | - |
| 1778046386 | 13.89° C | 92% | 1008.5 hPa | 0 mm | - | - | - |
| 1778045605 | 15° C | 92% | 1008.7 hPa | 0 mm | - | - | - |
| 1778045208 | 16.11° C | 91% | 1008.7 hPa | 0 mm | - | - | - |
| 1778044841 | 17.22° C | 92% | 1008.8 hPa | 0 mm | - | - | - |
| 1778044070 | 18.33° C | 95% | 1008.5 hPa | 0 mm | - | - | - |
| 1778043301 | 18.33° C | 95% | 1008.2 hPa | 2.29 mm | - | - | - |
| 1778042915 | 18.33° C | 95% | 1007.9 hPa | 10.41 mm | - | - | - |
| 1778042538 | 18.33° C | 95% | 1008.1 hPa | 23.37 mm | - | - | - |
| 1778041757 | 18.33° C | 95% | 1007.5 hPa | 0 mm | - | - | - |
| 1778040982 | 17.78° C | 95% | 1007.4 hPa | 0 mm | - | - | - |
| 1778040600 | 17.78° C | 95% | 1007.5 hPa | 0 mm | - | - | - |
| 1778040225 | 17.78° C | 95% | 1007.5 hPa | 0 mm | - | - | - |
| 1778039849 | 17.78° C | 95% | 1007.6 hPa | 0 mm | - | - | - |
| 1778038713 | 17.78° C | 95% | 1007.7 hPa | 0 mm | - | - | - |
* Rain latest hour (hover to see other rain measurements)
** Current wind speed in m/s (hover to see current wind gust speed)